sensor_id;sensor_type;location;lat;lon;timestamp;temperature;humidity
2873;DHT22;1444;49.166;7.312;2023-04-24T00:00:12;12.00;99.90
2873;DHT22;1444;49.166;7.312;2023-04-24T00:02:40;12.00;99.90
2873;DHT22;1444;49.166;7.312;2023-04-24T00:05:11;12.00;99.90
2873;DHT22;1444;49.166;7.312;2023-04-24T00:07:38;11.90;99.90
2873;DHT22;1444;49.166;7.312;2023-04-24T00:10:06;12.00;99.90
2873;DHT22;1444;49.166;7.312;2023-04-24T00:12:33;11.90;99.90
2873;DHT22;1444;49.166;7.312;2023-04-24T00:14:59;11.90;99.90
2873;DHT22;1444;49.166;7.312;2023-04-24T00:17:26;11.90;99.90
2873;DHT22;1444;49.166;7.312;2023-04-24T00:19:53;11.90;99.90
2873;DHT22;1444;49.166;7.312;2023-04-24T00:22:25;11.70;99.90
2873;DHT22;1444;49.166;7.312;2023-04-24T00:24:52;11.90;99.90
2873;DHT22;1444;49.166;7.312;2023-04-24T00:27:18;11.80;99.90
2873;DHT22;1444;49.166;7.312;2023-04-24T00:29:45;11.70;99.90
2873;DHT22;1444;49.166;7.312;2023-04-24T00:32:12;11.80;99.90
2873;DHT22;1444;49.166;7.312;2023-04-24T00:34:39;11.80;99.90
2873;DHT22;1444;49.166;7.312;2023-04-24T00:37:06;11.90;99.90
2873;DHT22;1444;49.166;7.312;2023-04-24T00:39:37;11.90;99.90
2873;DHT22;1444;49.166;7.312;2023-04-24T00:42:03;11.90;99.90
2873;DHT22;1444;49.166;7.312;2023-04-24T00:44:32;12.00;99.90
2873;DHT22;1444;49.166;7.312;2023-04-24T00:46:59;12.00;99.90
2873;DHT22;1444;49.166;7.312;2023-04-24T00:49:26;11.90;99.90
2873;DHT22;1444;49.166;7.312;2023-04-24T00:51:52;11.90;99.90
2873;DHT22;1444;49.166;7.312;2023-04-24T00:54:19;11.90;99.90
2873;DHT22;1444;49.166;7.312;2023-04-24T00:56:47;11.80;99.90
2873;DHT22;1444;49.166;7.312;2023-04-24T00:59:16;11.90;99.90
2873;DHT22;1444;49.166;7.312;2023-04-24T01:01:43;11.90;99.90
2873;DHT22;1444;49.166;7.312;2023-04-24T01:04:11;11.90;99.90
2873;DHT22;1444;49.166;7.312;2023-04-24T01:06:39;11.90;99.90
2873;DHT22;1444;49.166;7.312;2023-04-24T01:09:07;11.90;99.90
2873;DHT22;1444;49.166;7.312;2023-04-24T01:11:34;11.90;99.90
2873;DHT22;1444;49.166;7.312;2023-04-24T01:16:29;12.10;99.90
2873;DHT22;1444;49.166;7.312;2023-04-24T01:18:56;12.10;99.90
2873;DHT22;1444;49.166;7.312;2023-04-24T01:23:52;12.00;99.90
2873;DHT22;1444;49.166;7.312;2023-04-24T01:26:19;11.80;99.90
2873;DHT22;1444;49.166;7.312;2023-04-24T01:28:46;11.70;99.90
2873;DHT22;1444;49.166;7.312;2023-04-24T01:31:13;11.60;99.90
2873;DHT22;1444;49.166;7.312;2023-04-24T01:33:41;11.50;99.90
2873;DHT22;1444;49.166;7.312;2023-04-24T01:36:08;11.40;99.90
2873;DHT22;1444;49.166;7.312;2023-04-24T01:38:37;11.40;99.90
2873;DHT22;1444;49.166;7.312;2023-04-24T01:41:05;11.40;99.90
2873;DHT22;1444;49.166;7.312;2023-04-24T01:43:32;11.40;99.90
2873;DHT22;1444;49.166;7.312;2023-04-24T01:45:58;11.40;99.90
2873;DHT22;1444;49.166;7.312;2023-04-24T01:48:25;11.30;99.90
2873;DHT22;1444;49.166;7.312;2023-04-24T01:50:52;11.30;99.90
2873;DHT22;1444;49.166;7.312;2023-04-24T01:53:19;11.30;99.90
2873;DHT22;1444;49.166;7.312;2023-04-24T01:55:46;11.20;99.90
2873;DHT22;1444;49.166;7.312;2023-04-24T01:58:14;11.20;99.90
2873;DHT22;1444;49.166;7.312;2023-04-24T02:00:41;11.10;99.90
2873;DHT22;1444;49.166;7.312;2023-04-24T02:03:07;11.10;99.90
2873;DHT22;1444;49.166;7.312;2023-04-24T02:05:34;11.00;99.90
2873;DHT22;1444;49.166;7.312;2023-04-24T02:08:01;11.00;99.90
2873;DHT22;1444;49.166;7.312;2023-04-24T02:10:27;10.90;99.90
2873;DHT22;1444;49.166;7.312;2023-04-24T02:12:54;10.90;99.90
2873;DHT22;1444;49.166;7.312;2023-04-24T02:15:22;11.00;99.90
2873;DHT22;1444;49.166;7.312;2023-04-24T02:17:49;11.00;99.90
2873;DHT22;1444;49.166;7.312;2023-04-24T02:20:16;11.00;99.90
2873;DHT22;1444;49.166;7.312;2023-04-24T02:22:43;11.00;99.90
2873;DHT22;1444;49.166;7.312;2023-04-24T02:25:09;11.00;99.90
2873;DHT22;1444;49.166;7.312;2023-04-24T02:27:36;10.90;99.90
2873;DHT22;1444;49.166;7.312;2023-04-24T02:30:03;10.90;99.90
2873;DHT22;1444;49.166;7.312;2023-04-24T02:32:31;10.90;99.90
2873;DHT22;1444;49.166;7.312;2023-04-24T02:34:59;10.90;99.90
2873;DHT22;1444;49.166;7.312;2023-04-24T02:37:26;10.70;99.90
2873;DHT22;1444;49.166;7.312;2023-04-24T02:39:52;10.80;99.90
2873;DHT22;1444;49.166;7.312;2023-04-24T02:42:19;10.70;99.90
2873;DHT22;1444;49.166;7.312;2023-04-24T02:44:46;10.60;99.90
2873;DHT22;1444;49.166;7.312;2023-04-24T02:47:13;10.60;99.90
2873;DHT22;1444;49.166;7.312;2023-04-24T02:49:41;10.60;99.90
2873;DHT22;1444;49.166;7.312;2023-04-24T02:52:07;10.50;99.90
2873;DHT22;1444;49.166;7.312;2023-04-24T02:54:34;10.50;99.90
2873;DHT22;1444;49.166;7.312;2023-04-24T02:57:01;10.50;99.90
2873;DHT22;1444;49.166;7.312;2023-04-24T02:59:28;10.40;99.90
2873;DHT22;1444;49.166;7.312;2023-04-24T03:01:54;10.40;99.90
2873;DHT22;1444;49.166;7.312;2023-04-24T03:04:21;10.30;99.90
2873;DHT22;1444;49.166;7.312;2023-04-24T03:06:49;10.30;99.90
2873;DHT22;1444;49.166;7.312;2023-04-24T03:09:18;10.30;99.90
2873;DHT22;1444;49.166;7.312;2023-04-24T03:11:44;10.20;99.90
2873;DHT22;1444;49.166;7.312;2023-04-24T03:14:11;10.10;99.90
2873;DHT22;1444;49.166;7.312;2023-04-24T03:16:38;10.10;99.90
2873;DHT22;1444;49.166;7.312;2023-04-24T03:19:05;10.10;99.90
2873;DHT22;1444;49.166;7.312;2023-04-24T03:21:31;10.00;99.90
2873;DHT22;1444;49.166;7.312;2023-04-24T03:23:59;10.00;99.90
2873;DHT22;1444;49.166;7.312;2023-04-24T03:26:26;10.00;99.90
2873;DHT22;1444;49.166;7.312;2023-04-24T03:28:53;9.90;99.90
2873;DHT22;1444;49.166;7.312;2023-04-24T03:31:21;9.80;99.90
2873;DHT22;1444;49.166;7.312;2023-04-24T03:33:47;9.80;99.90
2873;DHT22;1444;49.166;7.312;2023-04-24T03:36:14;9.70;99.90
2873;DHT22;1444;49.166;7.312;2023-04-24T03:38:41;9.70;99.90
2873;DHT22;1444;49.166;7.312;2023-04-24T03:41:09;9.60;99.90
2873;DHT22;1444;49.166;7.312;2023-04-24T03:43:35;9.80;99.90
2873;DHT22;1444;49.166;7.312;2023-04-24T03:46:02;9.60;99.90
2873;DHT22;1444;49.166;7.312;2023-04-24T03:48:29;9.60;99.90
2873;DHT22;1444;49.166;7.312;2023-04-24T03:50:56;9.60;99.90
2873;DHT22;1444;49.166;7.312;2023-04-24T03:53:22;9.60;99.90
2873;DHT22;1444;49.166;7.312;2023-04-24T03:55:49;9.70;99.90
2873;DHT22;1444;49.166;7.312;2023-04-24T03:58:17;9.70;99.90
2873;DHT22;1444;49.166;7.312;2023-04-24T04:00:44;9.70;99.90
2873;DHT22;1444;49.166;7.312;2023-04-24T04:03:12;9.70;99.90
2873;DHT22;1444;49.166;7.312;2023-04-24T04:05:39;9.70;99.90
2873;DHT22;1444;49.166;7.312;2023-04-24T04:08:06;9.70;99.90
2873;DHT22;1444;49.166;7.312;2023-04-24T04:10:33;9.80;99.90
2873;DHT22;1444;49.166;7.312;2023-04-24T04:13:00;9.70;99.90
2873;DHT22;1444;49.166;7.312;2023-04-24T04:15:28;9.80;99.90
2873;DHT22;1444;49.166;7.312;2023-04-24T04:17:54;9.80;99.90
2873;DHT22;1444;49.166;7.312;2023-04-24T04:20:21;9.80;99.90
2873;DHT22;1444;49.166;7.312;2023-04-24T04:22:48;9.70;99.90
2873;DHT22;1444;49.166;7.312;2023-04-24T04:25:14;9.70;99.90
2873;DHT22;1444;49.166;7.312;2023-04-24T04:27:41;9.70;99.90
2873;DHT22;1444;49.166;7.312;2023-04-24T04:30:08;9.80;99.90
2873;DHT22;1444;49.166;7.312;2023-04-24T04:32:36;9.80;99.90
2873;DHT22;1444;49.166;7.312;2023-04-24T04:35:04;9.80;99.90
2873;DHT22;1444;49.166;7.312;2023-04-24T04:37:31;9.90;99.90
2873;DHT22;1444;49.166;7.312;2023-04-24T04:39:59;10.00;99.90
2873;DHT22;1444;49.166;7.312;2023-04-24T04:42:26;10.10;99.90
2873;DHT22;1444;49.166;7.312;2023-04-24T04:44:53;10.20;99.90
2873;DHT22;1444;49.166;7.312;2023-04-24T04:47:22;10.30;99.90
2873;DHT22;1444;49.166;7.312;2023-04-24T04:49:50;10.40;99.90
2873;DHT22;1444;49.166;7.312;2023-04-24T04:52:17;10.30;99.90
2873;DHT22;1444;49.166;7.312;2023-04-24T04:54:44;10.20;99.90
2873;DHT22;1444;49.166;7.312;2023-04-24T04:57:11;10.10;99.90
2873;DHT22;1444;49.166;7.312;2023-04-24T04:59:38;10.10;99.90
2873;DHT22;1444;49.166;7.312;2023-04-24T05:02:06;10.00;99.90
2873;DHT22;1444;49.166;7.312;2023-04-24T05:04:33;9.90;99.90
2873;DHT22;1444;49.166;7.312;2023-04-24T05:07:01;9.90;99.90
2873;DHT22;1444;49.166;7.312;2023-04-24T05:09:29;8.50;99.90
2873;DHT22;1444;49.166;7.312;2023-04-24T05:11:56;10.00;99.90
2873;DHT22;1444;49.166;7.312;2023-04-24T05:14:22;10.10;99.90
2873;DHT22;1444;49.166;7.312;2023-04-24T05:16:49;10.20;99.90
2873;DHT22;1444;49.166;7.312;2023-04-24T05:19:16;10.20;99.90
2873;DHT22;1444;49.166;7.312;2023-04-24T05:21:43;10.20;99.90
2873;DHT22;1444;49.166;7.312;2023-04-24T05:24:10;10.00;99.90
2873;DHT22;1444;49.166;7.312;2023-04-24T05:26:37;9.90;99.90
2873;DHT22;1444;49.166;7.312;2023-04-24T05:29:04;9.80;99.90
2873;DHT22;1444;49.166;7.312;2023-04-24T05:31:31;9.80;99.90
2873;DHT22;1444;49.166;7.312;2023-04-24T05:33:57;9.70;99.90
2873;DHT22;1444;49.166;7.312;2023-04-24T05:36:24;9.60;99.90
2873;DHT22;1444;49.166;7.312;2023-04-24T05:38:52;9.60;99.90
2873;DHT22;1444;49.166;7.312;2023-04-24T05:41:20;9.70;99.90
2873;DHT22;1444;49.166;7.312;2023-04-24T05:43:47;9.60;99.90
2873;DHT22;1444;49.166;7.312;2023-04-24T05:46:14;9.60;99.90
2873;DHT22;1444;49.166;7.312;2023-04-24T05:48:41;9.60;99.90
2873;DHT22;1444;49.166;7.312;2023-04-24T05:51:08;9.70;99.90
2873;DHT22;1444;49.166;7.312;2023-04-24T05:53:35;9.70;99.90
2873;DHT22;1444;49.166;7.312;2023-04-24T05:56:02;9.70;99.90
2873;DHT22;1444;49.166;7.312;2023-04-24T05:58:30;9.70;99.90
2873;DHT22;1444;49.166;7.312;2023-04-24T06:00:56;9.90;99.90
2873;DHT22;1444;49.166;7.312;2023-04-24T06:03:24;9.90;99.90
2873;DHT22;1444;49.166;7.312;2023-04-24T06:05:50;9.90;99.90
2873;DHT22;1444;49.166;7.312;2023-04-24T06:08:17;9.90;99.90
2873;DHT22;1444;49.166;7.312;2023-04-24T06:10:44;9.90;99.90
2873;DHT22;1444;49.166;7.312;2023-04-24T06:13:11;9.90;99.90
2873;DHT22;1444;49.166;7.312;2023-04-24T06:15:39;10.00;99.90
2873;DHT22;1444;49.166;7.312;2023-04-24T06:18:06;10.00;99.90
2873;DHT22;1444;49.166;7.312;2023-04-24T06:20:33;10.10;99.90
2873;DHT22;1444;49.166;7.312;2023-04-24T06:22:59;10.30;99.90
2873;DHT22;1444;49.166;7.312;2023-04-24T06:25:26;10.50;99.90
2873;DHT22;1444;49.166;7.312;2023-04-24T06:27:53;10.80;99.90
2873;DHT22;1444;49.166;7.312;2023-04-24T06:30:20;10.90;99.90
2873;DHT22;1444;49.166;7.312;2023-04-24T06:32:48;10.80;99.90
2873;DHT22;1444;49.166;7.312;2023-04-24T06:35:15;10.80;99.90
2873;DHT22;1444;49.166;7.312;2023-04-24T06:37:42;10.80;99.90
2873;DHT22;1444;49.166;7.312;2023-04-24T06:40:09;10.70;99.90
2873;DHT22;1444;49.166;7.312;2023-04-24T06:42:36;10.60;99.90
2873;DHT22;1444;49.166;7.312;2023-04-24T06:45:04;10.50;99.90
2873;DHT22;1444;49.166;7.312;2023-04-24T06:47:31;10.40;99.90
2873;DHT22;1444;49.166;7.312;2023-04-24T06:49:59;10.30;99.90
2873;DHT22;1444;49.166;7.312;2023-04-24T06:52:26;10.30;99.90
2873;DHT22;1444;49.166;7.312;2023-04-24T06:54:52;10.30;99.90
2873;DHT22;1444;49.166;7.312;2023-04-24T06:57:25;10.20;99.90
2873;DHT22;1444;49.166;7.312;2023-04-24T06:59:52;10.20;99.90
2873;DHT22;1444;49.166;7.312;2023-04-24T07:02:19;10.30;99.90
2873;DHT22;1444;49.166;7.312;2023-04-24T07:04:46;10.30;99.90
2873;DHT22;1444;49.166;7.312;2023-04-24T07:07:14;10.30;99.90
2873;DHT22;1444;49.166;7.312;2023-04-24T07:09:42;10.20;99.90
2873;DHT22;1444;49.166;7.312;2023-04-24T07:12:09;10.20;99.90
2873;DHT22;1444;49.166;7.312;2023-04-24T07:14:37;10.20;99.90
2873;DHT22;1444;49.166;7.312;2023-04-24T07:17:04;10.20;99.90
2873;DHT22;1444;49.166;7.312;2023-04-24T07:19:32;10.30;99.90
2873;DHT22;1444;49.166;7.312;2023-04-24T07:21:59;10.40;99.90
2873;DHT22;1444;49.166;7.312;2023-04-24T07:24:27;10.30;99.90
2873;DHT22;1444;49.166;7.312;2023-04-24T07:26:54;10.30;99.90
2873;DHT22;1444;49.166;7.312;2023-04-24T07:29:21;10.40;99.90
2873;DHT22;1444;49.166;7.312;2023-04-24T07:31:47;10.50;99.90
2873;DHT22;1444;49.166;7.312;2023-04-24T07:34:14;10.80;99.90
2873;DHT22;1444;49.166;7.312;2023-04-24T07:36:41;10.90;99.90
2873;DHT22;1444;49.166;7.312;2023-04-24T07:39:07;10.90;99.90
2873;DHT22;1444;49.166;7.312;2023-04-24T07:41:36;10.90;99.90
2873;DHT22;1444;49.166;7.312;2023-04-24T07:44:03;10.90;99.90
2873;DHT22;1444;49.166;7.312;2023-04-24T07:46:30;10.80;99.90
2873;DHT22;1444;49.166;7.312;2023-04-24T07:48:57;10.60;99.90
2873;DHT22;1444;49.166;7.312;2023-04-24T07:51:24;10.50;99.80
2873;DHT22;1444;49.166;7.312;2023-04-24T07:53:52;10.50;99.90
2873;DHT22;1444;49.166;7.312;2023-04-24T07:56:20;10.50;99.80
2873;DHT22;1444;49.166;7.312;2023-04-24T07:58:48;10.50;99.90
2873;DHT22;1444;49.166;7.312;2023-04-24T08:01:15;10.70;99.90
2873;DHT22;1444;49.166;7.312;2023-04-24T08:03:41;10.40;99.50
2873;DHT22;1444;49.166;7.312;2023-04-24T08:06:08;10.40;99.90
2873;DHT22;1444;49.166;7.312;2023-04-24T08:08:35;10.40;99.50
2873;DHT22;1444;49.166;7.312;2023-04-24T08:11:02;10.50;99.90
2873;DHT22;1444;49.166;7.312;2023-04-24T08:13:28;10.50;99.90
2873;DHT22;1444;49.166;7.312;2023-04-24T08:15:57;10.60;99.90
2873;DHT22;1444;49.166;7.312;2023-04-24T08:18:24;10.60;99.90
2873;DHT22;1444;49.166;7.312;2023-04-24T08:20:51;10.50;99.90
2873;DHT22;1444;49.166;7.312;2023-04-24T08:23:18;10.70;99.90
2873;DHT22;1444;49.166;7.312;2023-04-24T08:25:45;10.70;99.20
2873;DHT22;1444;49.166;7.312;2023-04-24T08:28:11;10.80;99.70
2873;DHT22;1444;49.166;7.312;2023-04-24T08:30:45;10.70;99.70
2873;DHT22;1444;49.166;7.312;2023-04-24T08:33:13;10.60;99.90
2873;DHT22;1444;49.166;7.312;2023-04-24T08:35:40;10.70;99.50
2873;DHT22;1444;49.166;7.312;2023-04-24T08:38:07;10.70;99.40
2873;DHT22;1444;49.166;7.312;2023-04-24T08:40:34;10.60;99.90
2873;DHT22;1444;49.166;7.312;2023-04-24T08:43:01;10.60;99.70
2873;DHT22;1444;49.166;7.312;2023-04-24T08:45:28;10.60;99.40
2873;DHT22;1444;49.166;7.312;2023-04-24T08:47:55;10.70;99.90
2873;DHT22;1444;49.166;7.312;2023-04-24T08:50:25;10.70;99.90
2873;DHT22;1444;49.166;7.312;2023-04-24T08:52:52;10.80;99.90
2873;DHT22;1444;49.166;7.312;2023-04-24T08:55:19;10.70;99.90
2873;DHT22;1444;49.166;7.312;2023-04-24T08:57:50;10.60;99.90
2873;DHT22;1444;49.166;7.312;2023-04-24T09:00:19;10.50;99.70
2873;DHT22;1444;49.166;7.312;2023-04-24T09:02:48;10.50;99.90
2873;DHT22;1444;49.166;7.312;2023-04-24T09:05:17;10.40;99.80
2873;DHT22;1444;49.166;7.312;2023-04-24T09:07:49;10.50;99.90
2873;DHT22;1444;49.166;7.312;2023-04-24T09:10:18;10.50;99.60
2873;DHT22;1444;49.166;7.312;2023-04-24T09:12:45;10.50;99.90
2873;DHT22;1444;49.166;7.312;2023-04-24T09:15:12;10.60;99.90
2873;DHT22;1444;49.166;7.312;2023-04-24T09:17:39;10.70;99.90
2873;DHT22;1444;49.166;7.312;2023-04-24T09:20:06;10.70;99.80
2873;DHT22;1444;49.166;7.312;2023-04-24T09:22:34;10.70;99.30
2873;DHT22;1444;49.166;7.312;2023-04-24T09:25:04;10.70;99.70
2873;DHT22;1444;49.166;7.312;2023-04-24T09:30:00;10.70;99.50
2873;DHT22;1444;49.166;7.312;2023-04-24T09:32:27;10.70;99.30
2873;DHT22;1444;49.166;7.312;2023-04-24T09:35:09;10.70;99.30
2873;DHT22;1444;49.166;7.312;2023-04-24T09:37:37;10.70;99.50
2873;DHT22;1444;49.166;7.312;2023-04-24T09:40:12;10.60;99.70
2873;DHT22;1444;49.166;7.312;2023-04-24T09:42:39;10.40;99.60
2873;DHT22;1444;49.166;7.312;2023-04-24T09:45:09;10.50;99.40
2873;DHT22;1444;49.166;7.312;2023-04-24T09:47:37;10.50;99.90
2873;DHT22;1444;49.166;7.312;2023-04-24T09:50:11;10.50;99.80
2873;DHT22;1444;49.166;7.312;2023-04-24T09:52:45;10.50;99.90
2873;DHT22;1444;49.166;7.312;2023-04-24T09:55:16;10.50;99.90
2873;DHT22;1444;49.166;7.312;2023-04-24T09:57:53;10.60;99.90
2873;DHT22;1444;49.166;7.312;2023-04-24T10:00:25;11.10;99.90
2873;DHT22;1444;49.166;7.312;2023-04-24T10:02:56;10.70;99.90
2873;DHT22;1444;49.166;7.312;2023-04-24T10:05:24;10.60;99.80
2873;DHT22;1444;49.166;7.312;2023-04-24T10:07:52;10.70;99.90
2873;DHT22;1444;49.166;7.312;2023-04-24T10:10:23;10.60;99.80
2873;DHT22;1444;49.166;7.312;2023-04-24T10:12:51;10.70;99.90
2873;DHT22;1444;49.166;7.312;2023-04-24T10:15:18;10.80;99.90
2873;DHT22;1444;49.166;7.312;2023-04-24T10:17:47;10.70;99.90
2873;DHT22;1444;49.166;7.312;2023-04-24T10:20:18;10.70;99.90
2873;DHT22;1444;49.166;7.312;2023-04-24T10:22:47;10.80;99.90
2873;DHT22;1444;49.166;7.312;2023-04-24T10:25:16;10.80;99.90
2873;DHT22;1444;49.166;7.312;2023-04-24T10:27:44;10.90;99.90
2873;DHT22;1444;49.166;7.312;2023-04-24T10:30:12;10.90;99.90
2873;DHT22;1444;49.166;7.312;2023-04-24T10:32:39;10.90;99.30
2873;DHT22;1444;49.166;7.312;2023-04-24T10:35:07;11.10;99.90
2873;DHT22;1444;49.166;7.312;2023-04-24T10:37:37;11.00;99.40
2873;DHT22;1444;49.166;7.312;2023-04-24T10:40:06;11.30;99.80
2873;DHT22;1444;49.166;7.312;2023-04-24T10:42:34;11.30;99.00
2873;DHT22;1444;49.166;7.312;2023-04-24T10:45:06;11.50;99.10
2873;DHT22;1444;49.166;7.312;2023-04-24T10:47:39;11.60;99.10
2873;DHT22;1444;49.166;7.312;2023-04-24T10:50:08;11.70;99.30
2873;DHT22;1444;49.166;7.312;2023-04-24T10:52:45;11.60;98.80
2873;DHT22;1444;49.166;7.312;2023-04-24T10:55:12;11.60;98.70
2873;DHT22;1444;49.166;7.312;2023-04-24T10:57:39;11.60;98.90
2873;DHT22;1444;49.166;7.312;2023-04-24T11:00:21;11.50;99.00
2873;DHT22;1444;49.166;7.312;2023-04-24T11:02:48;11.60;99.30
2873;DHT22;1444;49.166;7.312;2023-04-24T11:05:18;11.50;99.30
2873;DHT22;1444;49.166;7.312;2023-04-24T11:08:10;11.40;99.50
2873;DHT22;1444;49.166;7.312;2023-04-24T11:10:39;11.50;99.10
2873;DHT22;1444;49.166;7.312;2023-04-24T11:13:06;11.60;99.20
2873;DHT22;1444;49.166;7.312;2023-04-24T11:15:35;11.70;98.40
2873;DHT22;1444;49.166;7.312;2023-04-24T11:18:02;11.70;98.30
2873;DHT22;1444;49.166;7.312;2023-04-24T11:20:31;11.10;97.60
2873;DHT22;1444;49.166;7.312;2023-04-24T11:23:03;11.90;98.70
2873;DHT22;1444;49.166;7.312;2023-04-24T11:25:30;11.90;98.60
2873;DHT22;1444;49.166;7.312;2023-04-24T11:28:03;11.90;97.90
2873;DHT22;1444;49.166;7.312;2023-04-24T11:30:31;11.80;97.60
2873;DHT22;1444;49.166;7.312;2023-04-24T11:33:05;11.80;97.70
2873;DHT22;1444;49.166;7.312;2023-04-24T11:35:35;11.70;97.60
2873;DHT22;1444;49.166;7.312;2023-04-24T11:38:06;11.70;97.90
2873;DHT22;1444;49.166;7.312;2023-04-24T11:40:33;11.70;97.60
2873;DHT22;1444;49.166;7.312;2023-04-24T11:43:00;11.80;98.20
2873;DHT22;1444;49.166;7.312;2023-04-24T11:45:29;11.90;97.60
2873;DHT22;1444;49.166;7.312;2023-04-24T11:47:56;12.10;98.00
2873;DHT22;1444;49.166;7.312;2023-04-24T11:50:26;12.10;97.20
2873;DHT22;1444;49.166;7.312;2023-04-24T11:52:55;12.10;96.80
2873;DHT22;1444;49.166;7.312;2023-04-24T11:55:26;12.10;97.00
2873;DHT22;1444;49.166;7.312;2023-04-24T11:57:54;12.00;97.30
2873;DHT22;1444;49.166;7.312;2023-04-24T12:00:24;11.90;97.70
2873;DHT22;1444;49.166;7.312;2023-04-24T12:02:52;11.80;98.20
2873;DHT22;1444;49.166;7.312;2023-04-24T12:05:30;11.80;97.50
2873;DHT22;1444;49.166;7.312;2023-04-24T12:07:57;11.80;97.60
2873;DHT22;1444;49.166;7.312;2023-04-24T12:10:25;12.00;97.80
2873;DHT22;1444;49.166;7.312;2023-04-24T12:12:52;12.10;97.40
2873;DHT22;1444;49.166;7.312;2023-04-24T12:15:20;12.20;97.60
2873;DHT22;1444;49.166;7.312;2023-04-24T12:17:48;12.20;97.10
2873;DHT22;1444;49.166;7.312;2023-04-24T12:20:16;12.20;96.50
2873;DHT22;1444;49.166;7.312;2023-04-24T12:22:45;12.30;96.10
2873;DHT22;1444;49.166;7.312;2023-04-24T12:25:12;12.50;97.20
2873;DHT22;1444;49.166;7.312;2023-04-24T12:27:40;12.60;96.90
2873;DHT22;1444;49.166;7.312;2023-04-24T12:30:12;12.80;97.60
2873;DHT22;1444;49.166;7.312;2023-04-24T12:32:43;13.00;97.40
2873;DHT22;1444;49.166;7.312;2023-04-24T12:35:10;13.00;96.30
2873;DHT22;1444;49.166;7.312;2023-04-24T12:37:37;13.20;95.70
2873;DHT22;1444;49.166;7.312;2023-04-24T12:40:08;13.10;95.50
2873;DHT22;1444;49.166;7.312;2023-04-24T12:42:36;13.30;95.80
2873;DHT22;1444;49.166;7.312;2023-04-24T12:45:08;13.40;96.00
2873;DHT22;1444;49.166;7.312;2023-04-24T12:47:35;13.60;95.90
2873;DHT22;1444;49.166;7.312;2023-04-24T12:50:02;13.70;96.10
2873;DHT22;1444;49.166;7.312;2023-04-24T12:52:29;13.60;95.60
2873;DHT22;1444;49.166;7.312;2023-04-24T12:54:58;13.50;95.70
2873;DHT22;1444;49.166;7.312;2023-04-24T12:57:27;13.50;95.60
2873;DHT22;1444;49.166;7.312;2023-04-24T12:59:55;13.60;95.30
2873;DHT22;1444;49.166;7.312;2023-04-24T13:02:22;13.70;95.10
2873;DHT22;1444;49.166;7.312;2023-04-24T13:04:50;13.80;95.70
2873;DHT22;1444;49.166;7.312;2023-04-24T13:07:17;13.70;94.60
2873;DHT22;1444;49.166;7.312;2023-04-24T13:09:44;13.60;94.40
2873;DHT22;1444;49.166;7.312;2023-04-24T13:12:11;13.60;94.20
2873;DHT22;1444;49.166;7.312;2023-04-24T13:14:40;13.50;95.10
2873;DHT22;1444;49.166;7.312;2023-04-24T13:17:07;13.60;95.20
2873;DHT22;1444;49.166;7.312;2023-04-24T13:19:36;13.90;96.00
2873;DHT22;1444;49.166;7.312;2023-04-24T13:22:03;14.10;94.70
2873;DHT22;1444;49.166;7.312;2023-04-24T13:24:30;14.30;94.20
2873;DHT22;1444;49.166;7.312;2023-04-24T13:26:58;14.60;95.00
2873;DHT22;1444;49.166;7.312;2023-04-24T13:29:25;14.70;95.00
2873;DHT22;1444;49.166;7.312;2023-04-24T13:31:54;15.00;94.70
2873;DHT22;1444;49.166;7.312;2023-04-24T13:34:21;15.30;94.10
2873;DHT22;1444;49.166;7.312;2023-04-24T13:36:49;15.10;92.80
2873;DHT22;1444;49.166;7.312;2023-04-24T13:39:17;15.00;92.60
2873;DHT22;1444;49.166;7.312;2023-04-24T13:41:43;14.90;93.30
2873;DHT22;1444;49.166;7.312;2023-04-24T13:44:10;14.70;93.60
2873;DHT22;1444;49.166;7.312;2023-04-24T13:46:37;14.60;92.90
2873;DHT22;1444;49.166;7.312;2023-04-24T13:49:05;14.40;93.30
2873;DHT22;1444;49.166;7.312;2023-04-24T13:51:32;14.20;93.30
2873;DHT22;1444;49.166;7.312;2023-04-24T13:53:59;14.00;93.90
2873;DHT22;1444;49.166;7.312;2023-04-24T13:56:26;13.90;94.40
2873;DHT22;1444;49.166;7.312;2023-04-24T13:58:52;13.50;93.60
2873;DHT22;1444;49.166;7.312;2023-04-24T14:01:20;13.30;94.90
2873;DHT22;1444;49.166;7.312;2023-04-24T14:03:49;13.20;95.90
2873;DHT22;1444;49.166;7.312;2023-04-24T14:06:18;13.10;96.80
2873;DHT22;1444;49.166;7.312;2023-04-24T14:08:44;13.10;97.70
2873;DHT22;1444;49.166;7.312;2023-04-24T14:11:11;13.10;98.40
2873;DHT22;1444;49.166;7.312;2023-04-24T14:13:38;13.10;97.20
2873;DHT22;1444;49.166;7.312;2023-04-24T14:16:06;13.00;96.60
2873;DHT22;1444;49.166;7.312;2023-04-24T14:18:33;13.10;97.30
2873;DHT22;1444;49.166;7.312;2023-04-24T14:21:00;13.20;98.00
2873;DHT22;1444;49.166;7.312;2023-04-24T14:23:28;13.30;98.10
2873;DHT22;1444;49.166;7.312;2023-04-24T14:25:55;13.50;97.80
2873;DHT22;1444;49.166;7.312;2023-04-24T14:28:21;13.80;98.90
2873;DHT22;1444;49.166;7.312;2023-04-24T14:30:48;14.10;99.50
2873;DHT22;1444;49.166;7.312;2023-04-24T14:33:15;14.40;98.10
2873;DHT22;1444;49.166;7.312;2023-04-24T14:35:42;14.50;97.20
2873;DHT22;1444;49.166;7.312;2023-04-24T14:38:09;14.50;96.30
2873;DHT22;1444;49.166;7.312;2023-04-24T14:40:37;14.40;96.90
2873;DHT22;1444;49.166;7.312;2023-04-24T14:43:04;14.30;96.00
2873;DHT22;1444;49.166;7.312;2023-04-24T14:45:32;14.30;95.90
2873;DHT22;1444;49.166;7.312;2023-04-24T14:47:59;14.30;96.00
2873;DHT22;1444;49.166;7.312;2023-04-24T14:50:25;14.30;94.90
2873;DHT22;1444;49.166;7.312;2023-04-24T14:52:53;14.30;95.60
2873;DHT22;1444;49.166;7.312;2023-04-24T14:55:20;14.30;95.20
2873;DHT22;1444;49.166;7.312;2023-04-24T14:57:48;14.30;95.10
2873;DHT22;1444;49.166;7.312;2023-04-24T15:00:15;14.30;94.90
2873;DHT22;1444;49.166;7.312;2023-04-24T15:02:42;14.20;95.00
2873;DHT22;1444;49.166;7.312;2023-04-24T15:05:10;14.20;95.00
2873;DHT22;1444;49.166;7.312;2023-04-24T15:07:37;14.30;94.90
2873;DHT22;1444;49.166;7.312;2023-04-24T15:10:04;14.30;95.10
2873;DHT22;1444;49.166;7.312;2023-04-24T15:12:31;14.30;94.50
2873;DHT22;1444;49.166;7.312;2023-04-24T15:14:59;14.10;94.60
2873;DHT22;1444;49.166;7.312;2023-04-24T15:17:26;14.00;95.50
2873;DHT22;1444;49.166;7.312;2023-04-24T15:19:53;13.90;96.40
2873;DHT22;1444;49.166;7.312;2023-04-24T15:22:20;13.70;96.40
2873;DHT22;1444;49.166;7.312;2023-04-24T15:24:46;13.40;97.00
2873;DHT22;1444;49.166;7.312;2023-04-24T15:27:13;13.20;97.50
2873;DHT22;1444;49.166;7.312;2023-04-24T15:29:40;13.10;97.20
2873;DHT22;1444;49.166;7.312;2023-04-24T15:32:08;12.90;97.30
2873;DHT22;1444;49.166;7.312;2023-04-24T15:34:34;12.70;97.10
2873;DHT22;1444;49.166;7.312;2023-04-24T15:37:01;12.60;97.70
2873;DHT22;1444;49.166;7.312;2023-04-24T15:39:28;12.40;98.10
2873;DHT22;1444;49.166;7.312;2023-04-24T15:41:54;12.30;98.10
2873;DHT22;1444;49.166;7.312;2023-04-24T15:44:22;12.30;97.90
2873;DHT22;1444;49.166;7.312;2023-04-24T15:46:49;12.40;98.50
2873;DHT22;1444;49.166;7.312;2023-04-24T15:49:18;12.50;98.70
2873;DHT22;1444;49.166;7.312;2023-04-24T15:51:44;12.60;98.70
2873;DHT22;1444;49.166;7.312;2023-04-24T15:54:11;12.60;98.90
2873;DHT22;1444;49.166;7.312;2023-04-24T15:56:38;12.70;98.60
2873;DHT22;1444;49.166;7.312;2023-04-24T15:59:05;12.70;98.40
2873;DHT22;1444;49.166;7.312;2023-04-24T16:01:31;12.90;98.80
2873;DHT22;1444;49.166;7.312;2023-04-24T16:03:58;13.00;99.40
2873;DHT22;1444;49.166;7.312;2023-04-24T16:06:26;13.00;99.00
2873;DHT22;1444;49.166;7.312;2023-04-24T16:08:53;13.10;98.30
2873;DHT22;1444;49.166;7.312;2023-04-24T16:11:20;13.10;99.00
2873;DHT22;1444;49.166;7.312;2023-04-24T16:13:46;13.10;98.00